Cerejeira, Brazil
Current Conditions -  °F | °C
As of 4:00 PM on Saturday 25 Oct 2014 (Local Time) from SBVH Reporting Station
Scattered Clouds Scattered Clouds  
Wind Chill: 27°   Ceiling: Unl
Heat Index: 29°   Visibility: 6mi
Dew Point: 21°   Wind: 9mph
Humidity: 70%   Direction: 280°W
Pressure: 29.85"   Gusts: NA
Location:  13.19°S, 60.81°W
Report Text: SBVH 252000Z 28008KT 9999 SCT017 FEW023TCU SCT070 27/21 Q1011 RETS
Loading
Personal Weather Stations






























Interactive Weather Map
Tropical Storm Tracking
New forecast layout! Learn more

10-Day Weather Forecast

Advertisements
Track Severe Weather on mobile